createdAt,value
2023-01-20T15:09:25.219Z,46.40
2023-01-20T15:12:14.973Z,46.78
2023-01-20T15:15:18.531Z,49.97
2023-01-20T15:18:18.496Z,51.08
2023-01-20T15:20:54.898Z,46.38
2023-01-20T15:23:29.220Z,48.28
2023-01-20T15:26:09.116Z,50.88
2023-01-20T15:28:43.135Z,46.65
2023-01-20T15:31:16.058Z,45.30
2023-01-20T15:33:44.587Z,44.28
2023-01-20T15:36:33.584Z,44.58
2023-01-20T15:39:01.210Z,43.53
2023-01-20T15:41:34.764Z,43.47
2023-01-20T15:44:02.221Z,45.40
2023-01-20T15:46:29.818Z,45.65
2023-01-20T15:48:58.242Z,44.67
2023-01-20T15:51:25.736Z,44.60
2023-01-20T15:53:59.303Z,45.20
2023-01-20T15:56:30.146Z,44.72
2023-01-20T15:58:57.984Z,45.38
2023-01-20T16:01:27.157Z,45.13
2023-01-20T16:03:57.526Z,46.92
2023-01-20T16:06:32.005Z,45.10
2023-01-20T16:09:02.119Z,46.08
2023-01-20T16:11:30.572Z,45.50
2023-01-20T16:13:58.362Z,47.13
2023-01-20T16:16:29.775Z,46.47
2023-01-20T16:18:58.143Z,45.53
2023-01-20T16:21:26.589Z,46.90
2023-01-20T16:23:53.998Z,46.20
2023-01-20T16:26:28.539Z,47.33
2023-01-20T16:28:58.256Z,47.15
2023-01-20T16:31:27.450Z,46.22
2023-01-20T16:33:57.066Z,46.38
2023-01-20T16:36:25.101Z,47.75
2023-01-20T16:38:52.636Z,46.05
2023-01-20T16:41:25.339Z,47.40
2023-01-20T16:43:55.401Z,48.15
2023-01-20T16:46:33.296Z,49.70
2023-01-20T16:49:02.334Z,49.33
2023-01-20T16:51:31.615Z,49.63
2023-01-20T16:54:00.433Z,50.65
2023-01-20T16:56:30.971Z,53.08
2023-01-20T16:59:01.950Z,51.00
2023-01-20T17:01:31.241Z,50.15
2023-01-20T17:04:01.234Z,51.92
2023-01-20T17:06:31.834Z,51.60
2023-01-20T17:09:01.883Z,56.60
2023-01-20T17:11:32.125Z,50.95
2023-01-20T17:14:02.565Z,51.30
2023-01-20T17:16:30.152Z,52.58
2023-01-20T17:18:59.831Z,51.40
2023-01-20T17:21:30.304Z,52.03
2023-01-20T17:24:01.767Z,53.03
2023-01-20T17:26:30.524Z,52.20
2023-01-20T17:29:06.174Z,52.70
2023-01-20T17:31:37.338Z,55.08
2023-01-20T17:34:05.691Z,56.00
2023-01-20T17:36:35.080Z,56.97
2023-01-20T17:39:07.041Z,56.40
2023-01-20T17:41:35.081Z,58.30
2023-01-20T17:44:05.328Z,59.00
2023-01-20T17:46:32.864Z,63.53
2023-01-20T17:49:02.285Z,62.42
2023-01-20T17:51:30.198Z,63.03
2023-01-20T17:54:03.949Z,67.20
2023-01-20T17:56:32.295Z,62.08
2023-01-20T17:59:00.336Z,63.65
2023-01-20T18:01:33.580Z,61.22
2023-01-20T18:06:29.710Z,61.17
2023-01-20T18:09:01.557Z,60.63
2023-01-20T18:11:34.599Z,61.53
2023-01-20T18:14:04.287Z,62.95
2023-01-20T18:16:35.636Z,65.97
2023-01-20T18:19:04.468Z,67.28
2023-01-20T18:21:38.230Z,69.82
2023-01-20T18:24:08.647Z,68.72
2023-01-20T18:26:38.547Z,71.90
2023-01-20T18:29:17.388Z,70.47
2023-01-20T18:31:50.599Z,70.68
2023-01-20T18:34:21.140Z,68.88
2023-01-20T18:36:51.020Z,71.63
2023-01-20T18:39:23.465Z,69.28
2023-01-20T18:41:52.196Z,71.28
2023-01-20T18:44:21.063Z,72.55
2023-01-20T18:46:49.253Z,71.93
2023-01-20T18:49:26.183Z,70.32
2023-01-20T18:51:54.681Z,71.80
2023-01-20T18:54:22.476Z,72.78
2023-01-20T18:56:58.245Z,72.22
2023-01-20T18:59:26.578Z,71.43
2023-01-20T19:01:56.838Z,73.65
2023-01-20T19:04:25.030Z,74.82
2023-01-20T19:06:52.795Z,76.50
2023-01-20T19:09:20.243Z,78.03
2023-01-20T19:11:48.560Z,77.75
2023-01-20T19:14:16.646Z,77.50
2023-01-20T19:16:49.624Z,76.28
2023-01-20T19:19:19.821Z,78.15
2023-01-20T19:21:54.773Z,77.75
2023-01-20T19:24:23.050Z,77.97
2023-01-20T19:26:51.239Z,81.32
2023-01-20T19:29:20.422Z,79.72
2023-01-20T19:31:51.532Z,81.45
2023-01-20T19:34:19.634Z,77.60
2023-01-20T19:36:47.642Z,77.80
2023-01-20T19:39:16.311Z,79.57
2023-01-20T19:41:44.597Z,80.10
2023-01-20T19:44:13.975Z,80.10
2023-01-20T19:46:44.376Z,84.60
2023-01-20T19:49:17.385Z,83.93
2023-01-20T19:51:47.383Z,85.60
2023-01-20T19:54:15.930Z,86.55
2023-01-20T19:56:44.343Z,84.28
2023-01-20T19:59:14.937Z,83.32
2023-01-20T20:01:46.481Z,86.30
2023-01-20T20:04:24.444Z,85.78
2023-01-20T20:06:54.334Z,88.03
2023-01-20T20:09:26.292Z,87.25
2023-01-20T20:11:56.863Z,87.43
2023-01-20T20:14:27.902Z,87.53
2023-01-20T20:16:55.835Z,84.82
2023-01-20T20:19:23.794Z,86.03
2023-01-20T20:21:51.917Z,87.82
2023-01-20T20:24:21.969Z,89.88
2023-01-20T20:26:51.192Z,90.47
2023-01-20T20:29:19.852Z,91.30
2023-01-20T20:31:49.181Z,89.53
2023-01-20T20:34:19.809Z,91.28
2023-01-20T20:36:48.376Z,95.32
2023-01-20T20:39:18.978Z,92.53
2023-01-20T20:41:47.498Z,96.45
2023-01-20T20:44:17.016Z,95.40
2023-01-20T20:46:45.218Z,97.75
2023-01-20T20:49:16.431Z,98.15
2023-01-20T20:51:44.477Z,99.78
2023-01-20T20:54:26.047Z,98.78
2023-01-20T20:56:54.393Z,101.57
2023-01-20T20:59:25.643Z,106.25
2023-01-20T21:01:59.744Z,100.57
2023-01-20T21:04:30.239Z,99.10
2023-01-20T21:06:58.418Z,100.57
2023-01-20T21:09:26.930Z,98.00
2023-01-20T21:11:56.132Z,99.75
2023-01-20T21:14:30.109Z,94.28
2023-01-20T21:16:58.137Z,85.63
2023-01-20T21:19:28.580Z,80.18
2023-01-20T21:21:57.739Z,78.88
2023-01-20T21:24:31.418Z,71.30
2023-01-20T21:27:01.251Z,72.20
2023-01-20T21:29:31.174Z,70.22
2023-01-20T21:31:59.728Z,61.75
2023-01-20T21:34:27.664Z,64.20
2023-01-20T21:37:04.700Z,66.53
2023-01-20T21:39:32.525Z,73.03
2023-01-20T21:42:00.385Z,73.20
2023-01-20T21:44:32.007Z,72.25
2023-01-20T21:47:05.568Z,69.15
2023-01-20T21:49:51.580Z,65.00
2023-01-20T21:52:43.055Z,61.65
2023-01-20T21:55:19.215Z,58.65
2023-01-20T21:57:49.480Z,58.15
2023-01-20T22:00:19.121Z,54.35
2023-01-20T22:02:47.215Z,52.95
2023-01-20T22:05:15.830Z,52.88
2023-01-20T22:07:42.922Z,55.47
2023-01-20T22:10:11.764Z,52.90
2023-01-20T22:12:40.143Z,55.00
2023-01-20T22:15:08.123Z,52.38
2023-01-20T22:17:35.603Z,52.10
2023-01-20T22:20:02.993Z,56.38
2023-01-20T22:22:30.533Z,54.10
2023-01-20T22:24:57.999Z,55.13
2023-01-20T22:27:26.419Z,55.78
2023-01-20T22:29:59.970Z,54.03
2023-01-20T22:32:28.543Z,60.85
2023-01-20T22:34:56.969Z,57.63
2023-01-20T22:37:24.456Z,56.63
2023-01-20T22:39:52.012Z,55.35
2023-01-20T22:42:19.380Z,58.13
2023-01-20T22:44:46.833Z,55.42
2023-01-20T22:47:15.313Z,60.78
2023-01-20T22:49:42.856Z,57.40
2023-01-20T22:52:10.768Z,54.67
2023-01-20T22:54:38.128Z,55.30
2023-01-20T22:57:05.682Z,51.47
2023-01-20T22:59:36.122Z,51.28
2023-01-20T23:02:03.858Z,51.15
2023-01-20T23:04:31.043Z,51.53
2023-01-20T23:06:58.157Z,50.00
2023-01-20T23:09:25.527Z,50.70
2023-01-20T23:11:54.120Z,51.38
2023-01-20T23:14:42.355Z,50.15
2023-01-20T23:17:09.426Z,51.00
2023-01-20T23:19:37.821Z,49.78
2023-01-20T23:22:05.287Z,52.00
2023-01-20T23:24:33.759Z,50.10
2023-01-20T23:27:01.258Z,48.85
2023-01-20T23:29:28.722Z,49.70
2023-01-20T23:31:58.308Z,48.75
2023-01-20T23:34:25.733Z,49.50
2023-01-20T23:36:53.091Z,46.88
2023-01-20T23:39:20.599Z,50.45
2023-01-20T23:41:48.018Z,49.80
2023-01-20T23:44:15.528Z,49.80
2023-01-20T23:46:44.949Z,50.05
2023-01-20T23:49:13.463Z,48.75
2023-01-20T23:51:40.915Z,49.47
2023-01-20T23:54:13.640Z,47.10
2023-01-20T23:56:40.950Z,47.83
2023-01-20T23:59:08.443Z,47.05
